sensor_id;sensor_type;location;lat;lon;timestamp;temperature;humidity
11067;DHT22;29763;50.904;5.530;2023-07-02T00:01:27;15.60;99.90
11067;DHT22;29763;50.904;5.530;2023-07-02T00:03:55;15.70;99.90
11067;DHT22;29763;50.904;5.530;2023-07-02T00:06:20;15.60;99.90
11067;DHT22;29763;50.904;5.530;2023-07-02T00:08:47;15.60;99.90
11067;DHT22;29763;50.904;5.530;2023-07-02T00:11:16;15.60;99.90
11067;DHT22;29763;50.904;5.530;2023-07-02T00:13:44;15.60;99.90
11067;DHT22;29763;50.904;5.530;2023-07-02T00:16:10;15.60;99.90
11067;DHT22;29763;50.904;5.530;2023-07-02T00:18:44;15.60;99.90
11067;DHT22;29763;50.904;5.530;2023-07-02T00:21:11;15.50;99.90
11067;DHT22;29763;50.904;5.530;2023-07-02T00:23:40;15.60;99.90
11067;DHT22;29763;50.904;5.530;2023-07-02T00:26:10;15.60;99.90
11067;DHT22;29763;50.904;5.530;2023-07-02T00:28:45;15.50;99.90
11067;DHT22;29763;50.904;5.530;2023-07-02T00:31:11;15.50;99.90
11067;DHT22;29763;50.904;5.530;2023-07-02T00:33:39;15.50;99.90
11067;DHT22;29763;50.904;5.530;2023-07-02T00:36:04;15.50;99.90
11067;DHT22;29763;50.904;5.530;2023-07-02T00:38:31;15.50;99.90
11067;DHT22;29763;50.904;5.530;2023-07-02T00:40:57;15.50;99.90
11067;DHT22;29763;50.904;5.530;2023-07-02T00:43:29;15.50;99.90
11067;DHT22;29763;50.904;5.530;2023-07-02T00:45:57;15.40;99.90
11067;DHT22;29763;50.904;5.530;2023-07-02T00:48:24;15.40;99.90
11067;DHT22;29763;50.904;5.530;2023-07-02T00:50:50;15.40;99.90
11067;DHT22;29763;50.904;5.530;2023-07-02T00:53:16;15.40;99.90
11067;DHT22;29763;50.904;5.530;2023-07-02T00:55:48;15.40;99.90
11067;DHT22;29763;50.904;5.530;2023-07-02T00:58:16;15.40;99.90
11067;DHT22;29763;50.904;5.530;2023-07-02T01:00:47;15.40;99.90
11067;DHT22;29763;50.904;5.530;2023-07-02T01:03:13;15.40;99.90
11067;DHT22;29763;50.904;5.530;2023-07-02T01:05:39;15.40;99.90
11067;DHT22;29763;50.904;5.530;2023-07-02T01:08:07;15.30;99.90
11067;DHT22;29763;50.904;5.530;2023-07-02T01:10:35;15.30;99.90
11067;DHT22;29763;50.904;5.530;2023-07-02T01:13:08;15.30;99.90
11067;DHT22;29763;50.904;5.530;2023-07-02T01:15:37;15.30;99.90
11067;DHT22;29763;50.904;5.530;2023-07-02T01:18:39;15.30;99.90
11067;DHT22;29763;50.904;5.530;2023-07-02T01:20:59;15.20;99.90
11067;DHT22;29763;50.904;5.530;2023-07-02T01:23:28;15.20;99.90
11067;DHT22;29763;50.904;5.530;2023-07-02T01:25:55;15.30;99.90
11067;DHT22;29763;50.904;5.530;2023-07-02T01:28:33;15.20;99.90
11067;DHT22;29763;50.904;5.530;2023-07-02T01:30:59;15.20;99.90
11067;DHT22;29763;50.904;5.530;2023-07-02T01:33:25;15.20;99.90
11067;DHT22;29763;50.904;5.530;2023-07-02T01:35:52;15.30;99.90
11067;DHT22;29763;50.904;5.530;2023-07-02T01:38:17;15.20;99.90
11067;DHT22;29763;50.904;5.530;2023-07-02T01:40:44;15.20;99.90
11067;DHT22;29763;50.904;5.530;2023-07-02T01:43:15;15.30;99.90
11067;DHT22;29763;50.904;5.530;2023-07-02T01:45:43;15.30;99.90
11067;DHT22;29763;50.904;5.530;2023-07-02T01:48:09;15.30;99.90
11067;DHT22;29763;50.904;5.530;2023-07-02T01:50:37;15.20;99.90
11067;DHT22;29763;50.904;5.530;2023-07-02T01:53:09;15.30;99.90
11067;DHT22;29763;50.904;5.530;2023-07-02T01:55:38;15.30;99.90
11067;DHT22;29763;50.904;5.530;2023-07-02T01:58:05;15.30;99.90
11067;DHT22;29763;50.904;5.530;2023-07-02T02:00:40;15.20;99.90
11067;DHT22;29763;50.904;5.530;2023-07-02T02:06:08;15.20;99.90
11067;DHT22;29763;50.904;5.530;2023-07-02T02:08:36;15.20;99.90
11067;DHT22;29763;50.904;5.530;2023-07-02T02:11:02;15.20;99.90
11067;DHT22;29763;50.904;5.530;2023-07-02T02:13:29;15.20;99.90
11067;DHT22;29763;50.904;5.530;2023-07-02T02:15:55;15.20;99.90
11067;DHT22;29763;50.904;5.530;2023-07-02T02:18:23;15.20;99.90
11067;DHT22;29763;50.904;5.530;2023-07-02T02:20:50;15.20;99.90
11067;DHT22;29763;50.904;5.530;2023-07-02T02:23:17;15.20;99.90
11067;DHT22;29763;50.904;5.530;2023-07-02T02:25:45;15.30;99.90
11067;DHT22;29763;50.904;5.530;2023-07-02T02:28:11;15.30;99.90
11067;DHT22;29763;50.904;5.530;2023-07-02T02:30:37;15.30;99.90
11067;DHT22;29763;50.904;5.530;2023-07-02T02:33:22;15.30;99.90
11067;DHT22;29763;50.904;5.530;2023-07-02T02:35:48;15.30;99.90
11067;DHT22;29763;50.904;5.530;2023-07-02T02:38:18;15.20;99.90
11067;DHT22;29763;50.904;5.530;2023-07-02T02:40:45;15.30;99.90
11067;DHT22;29763;50.904;5.530;2023-07-02T02:43:11;15.30;99.90
11067;DHT22;29763;50.904;5.530;2023-07-02T02:45:43;15.30;99.90
11067;DHT22;29763;50.904;5.530;2023-07-02T02:48:17;15.30;99.90
11067;DHT22;29763;50.904;5.530;2023-07-02T02:50:44;15.30;99.90
11067;DHT22;29763;50.904;5.530;2023-07-02T02:53:11;15.30;99.90
11067;DHT22;29763;50.904;5.530;2023-07-02T02:55:37;15.30;99.90
11067;DHT22;29763;50.904;5.530;2023-07-02T02:58:03;15.30;99.90
11067;DHT22;29763;50.904;5.530;2023-07-02T03:00:29;15.30;99.90
11067;DHT22;29763;50.904;5.530;2023-07-02T03:02:55;15.30;99.90
11067;DHT22;29763;50.904;5.530;2023-07-02T03:05:24;15.30;99.90
11067;DHT22;29763;50.904;5.530;2023-07-02T03:07:51;15.30;99.90
11067;DHT22;29763;50.904;5.530;2023-07-02T03:10:17;15.30;99.90
11067;DHT22;29763;50.904;5.530;2023-07-02T03:12:44;15.30;99.90
11067;DHT22;29763;50.904;5.530;2023-07-02T03:15:10;15.30;99.90
11067;DHT22;29763;50.904;5.530;2023-07-02T03:17:39;15.30;99.90
11067;DHT22;29763;50.904;5.530;2023-07-02T03:20:06;15.30;99.90
11067;DHT22;29763;50.904;5.530;2023-07-02T03:22:35;15.20;99.90
11067;DHT22;29763;50.904;5.530;2023-07-02T03:25:02;15.20;99.90
11067;DHT22;29763;50.904;5.530;2023-07-02T03:27:30;15.20;99.90
11067;DHT22;29763;50.904;5.530;2023-07-02T03:29:56;15.20;99.90
11067;DHT22;29763;50.904;5.530;2023-07-02T03:32:21;15.20;99.90
11067;DHT22;29763;50.904;5.530;2023-07-02T03:34:49;15.10;99.90
11067;DHT22;29763;50.904;5.530;2023-07-02T03:37:16;15.10;99.90
11067;DHT22;29763;50.904;5.530;2023-07-02T03:39:41;15.10;99.90
11067;DHT22;29763;50.904;5.530;2023-07-02T03:42:07;15.10;99.90
11067;DHT22;29763;50.904;5.530;2023-07-02T03:44:37;15.10;99.90
11067;DHT22;29763;50.904;5.530;2023-07-02T03:47:03;15.00;99.90
11067;DHT22;29763;50.904;5.530;2023-07-02T03:49:30;15.00;99.90
11067;DHT22;29763;50.904;5.530;2023-07-02T03:51:55;15.00;99.90
11067;DHT22;29763;50.904;5.530;2023-07-02T03:54:24;15.10;99.90
11067;DHT22;29763;50.904;5.530;2023-07-02T03:56:57;15.10;99.90
11067;DHT22;29763;50.904;5.530;2023-07-02T03:59:24;15.10;99.90
11067;DHT22;29763;50.904;5.530;2023-07-02T04:01:59;15.10;99.90
11067;DHT22;29763;50.904;5.530;2023-07-02T04:04:26;15.10;99.90
11067;DHT22;29763;50.904;5.530;2023-07-02T04:06:52;15.10;99.90
11067;DHT22;29763;50.904;5.530;2023-07-02T04:09:19;15.10;99.90
11067;DHT22;29763;50.904;5.530;2023-07-02T04:11:52;15.10;99.90
11067;DHT22;29763;50.904;5.530;2023-07-02T04:14:21;15.10;99.90
11067;DHT22;29763;50.904;5.530;2023-07-02T04:16:47;15.20;99.90
11067;DHT22;29763;50.904;5.530;2023-07-02T04:19:13;15.20;99.90
11067;DHT22;29763;50.904;5.530;2023-07-02T04:21:39;15.30;99.90
11067;DHT22;29763;50.904;5.530;2023-07-02T04:24:06;15.30;99.90
11067;DHT22;29763;50.904;5.530;2023-07-02T04:26:41;15.30;99.90
11067;DHT22;29763;50.904;5.530;2023-07-02T04:29:12;15.30;99.90
11067;DHT22;29763;50.904;5.530;2023-07-02T04:31:45;15.30;99.90
11067;DHT22;29763;50.904;5.530;2023-07-02T04:34:20;15.40;99.90
11067;DHT22;29763;50.904;5.530;2023-07-02T04:36:53;15.40;99.90
11067;DHT22;29763;50.904;5.530;2023-07-02T04:39:19;15.50;99.90
11067;DHT22;29763;50.904;5.530;2023-07-02T04:41:48;15.50;99.90
11067;DHT22;29763;50.904;5.530;2023-07-02T04:44:18;15.50;99.90
11067;DHT22;29763;50.904;5.530;2023-07-02T04:46:49;15.50;99.90
11067;DHT22;29763;50.904;5.530;2023-07-02T04:49:16;15.50;99.90
11067;DHT22;29763;50.904;5.530;2023-07-02T04:51:42;15.60;99.90
11067;DHT22;29763;50.904;5.530;2023-07-02T04:54:08;15.70;99.90
11067;DHT22;29763;50.904;5.530;2023-07-02T04:56:34;15.70;99.90
11067;DHT22;29763;50.904;5.530;2023-07-02T04:59:00;15.80;99.90
11067;DHT22;29763;50.904;5.530;2023-07-02T05:01:28;15.80;99.90
11067;DHT22;29763;50.904;5.530;2023-07-02T05:04:07;15.90;99.90
11067;DHT22;29763;50.904;5.530;2023-07-02T05:06:33;15.90;99.90
11067;DHT22;29763;50.904;5.530;2023-07-02T05:08:59;16.10;99.90
11067;DHT22;29763;50.904;5.530;2023-07-02T05:11:26;16.10;99.90
11067;DHT22;29763;50.904;5.530;2023-07-02T05:13:52;16.20;99.90
11067;DHT22;29763;50.904;5.530;2023-07-02T05:16:19;16.30;99.90
11067;DHT22;29763;50.904;5.530;2023-07-02T05:18:45;16.40;99.90
11067;DHT22;29763;50.904;5.530;2023-07-02T05:21:20;16.50;99.90
11067;DHT22;29763;50.904;5.530;2023-07-02T05:23:47;16.60;99.90
11067;DHT22;29763;50.904;5.530;2023-07-02T05:26:13;16.70;99.90
11067;DHT22;29763;50.904;5.530;2023-07-02T05:28:44;16.80;99.90
11067;DHT22;29763;50.904;5.530;2023-07-02T05:31:11;16.80;99.90
11067;DHT22;29763;50.904;5.530;2023-07-02T05:33:38;16.90;99.90
11067;DHT22;29763;50.904;5.530;2023-07-02T05:36:04;17.00;99.90
11067;DHT22;29763;50.904;5.530;2023-07-02T05:38:30;17.10;99.90
11067;DHT22;29763;50.904;5.530;2023-07-02T05:41:01;17.10;99.90
11067;DHT22;29763;50.904;5.530;2023-07-02T05:43:28;17.00;99.90
11067;DHT22;29763;50.904;5.530;2023-07-02T05:45:54;17.00;99.90
11067;DHT22;29763;50.904;5.530;2023-07-02T05:48:21;17.00;99.90
11067;DHT22;29763;50.904;5.530;2023-07-02T05:50:50;17.00;99.90
11067;DHT22;29763;50.904;5.530;2023-07-02T05:53:20;17.20;99.90
11067;DHT22;29763;50.904;5.530;2023-07-02T05:55:54;17.30;99.90
11067;DHT22;29763;50.904;5.530;2023-07-02T05:58:20;17.40;99.90
11067;DHT22;29763;50.904;5.530;2023-07-02T06:00:46;17.50;99.90
11067;DHT22;29763;50.904;5.530;2023-07-02T06:03:18;17.60;99.90
11067;DHT22;29763;50.904;5.530;2023-07-02T06:05:49;17.60;99.90
11067;DHT22;29763;50.904;5.530;2023-07-02T06:08:18;17.70;99.90
11067;DHT22;29763;50.904;5.530;2023-07-02T06:10:49;17.90;99.90
11067;DHT22;29763;50.904;5.530;2023-07-02T06:13:22;17.90;99.90
11067;DHT22;29763;50.904;5.530;2023-07-02T06:15:50;17.90;99.90
11067;DHT22;29763;50.904;5.530;2023-07-02T06:18:35;18.00;99.90
11067;DHT22;29763;50.904;5.530;2023-07-02T06:21:01;17.90;99.90
11067;DHT22;29763;50.904;5.530;2023-07-02T06:23:38;17.90;99.90
11067;DHT22;29763;50.904;5.530;2023-07-02T06:26:04;17.90;99.90
11067;DHT22;29763;50.904;5.530;2023-07-02T06:28:34;17.90;99.90
11067;DHT22;29763;50.904;5.530;2023-07-02T06:31:08;18.00;99.90
11067;DHT22;29763;50.904;5.530;2023-07-02T06:33:40;18.30;99.90
11067;DHT22;29763;50.904;5.530;2023-07-02T06:36:11;18.40;99.90
11067;DHT22;29763;50.904;5.530;2023-07-02T06:38:44;18.40;99.90
11067;DHT22;29763;50.904;5.530;2023-07-02T06:41:10;18.50;99.90
11067;DHT22;29763;50.904;5.530;2023-07-02T06:43:36;18.80;99.90
11067;DHT22;29763;50.904;5.530;2023-07-02T06:46:33;18.80;99.90
11067;DHT22;29763;50.904;5.530;2023-07-02T06:49:11;18.70;99.90
11067;DHT22;29763;50.904;5.530;2023-07-02T06:51:46;18.60;99.90
11067;DHT22;29763;50.904;5.530;2023-07-02T06:54:13;18.40;99.90
11067;DHT22;29763;50.904;5.530;2023-07-02T06:56:49;18.50;99.90
11067;DHT22;29763;50.904;5.530;2023-07-02T06:59:19;18.50;99.90
11067;DHT22;29763;50.904;5.530;2023-07-02T07:01:51;18.60;99.90
11067;DHT22;29763;50.904;5.530;2023-07-02T07:04:18;18.80;99.90
11067;DHT22;29763;50.904;5.530;2023-07-02T07:06:56;19.20;99.90
11067;DHT22;29763;50.904;5.530;2023-07-02T07:09:22;19.40;99.90
11067;DHT22;29763;50.904;5.530;2023-07-02T07:11:51;19.50;99.90
11067;DHT22;29763;50.904;5.530;2023-07-02T07:14:21;19.50;99.90
11067;DHT22;29763;50.904;5.530;2023-07-02T07:16:51;19.60;99.90
11067;DHT22;29763;50.904;5.530;2023-07-02T07:19:17;19.70;99.90
11067;DHT22;29763;50.904;5.530;2023-07-02T07:21:45;19.90;99.90
11067;DHT22;29763;50.904;5.530;2023-07-02T07:24:28;20.10;99.90
11067;DHT22;29763;50.904;5.530;2023-07-02T07:26:57;20.30;99.90
11067;DHT22;29763;50.904;5.530;2023-07-02T07:29:25;20.30;99.90
11067;DHT22;29763;50.904;5.530;2023-07-02T07:31:59;20.30;99.90
11067;DHT22;29763;50.904;5.530;2023-07-02T07:34:28;20.30;99.90
11067;DHT22;29763;50.904;5.530;2023-07-02T07:36:54;20.20;99.90
11067;DHT22;29763;50.904;5.530;2023-07-02T07:39:21;20.20;99.90
11067;DHT22;29763;50.904;5.530;2023-07-02T07:41:49;20.30;99.90
11067;DHT22;29763;50.904;5.530;2023-07-02T07:44:17;20.40;99.90
11067;DHT22;29763;50.904;5.530;2023-07-02T07:46:46;20.40;99.90
11067;DHT22;29763;50.904;5.530;2023-07-02T07:49:13;20.40;99.90
11067;DHT22;29763;50.904;5.530;2023-07-02T07:51:39;20.60;99.90
11067;DHT22;29763;50.904;5.530;2023-07-02T07:54:11;20.60;99.90
11067;DHT22;29763;50.904;5.530;2023-07-02T07:56:41;20.60;99.90
11067;DHT22;29763;50.904;5.530;2023-07-02T08:01:53;20.70;99.90
11067;DHT22;29763;50.904;5.530;2023-07-02T08:04:26;21.00;99.90
11067;DHT22;29763;50.904;5.530;2023-07-02T08:06:59;21.20;99.90
11067;DHT22;29763;50.904;5.530;2023-07-02T08:09:32;21.20;99.90
11067;DHT22;29763;50.904;5.530;2023-07-02T08:12:05;21.40;99.90
11067;DHT22;29763;50.904;5.530;2023-07-02T08:14:33;21.60;99.90
11067;DHT22;29763;50.904;5.530;2023-07-02T08:17:00;22.00;99.90
11067;DHT22;29763;50.904;5.530;2023-07-02T08:19:29;22.30;99.90
11067;DHT22;29763;50.904;5.530;2023-07-02T08:21:54;22.30;99.90
11067;DHT22;29763;50.904;5.530;2023-07-02T08:24:21;22.40;99.90
11067;DHT22;29763;50.904;5.530;2023-07-02T08:26:49;22.10;99.90
11067;DHT22;29763;50.904;5.530;2023-07-02T08:29:18;21.80;99.90
11067;DHT22;29763;50.904;5.530;2023-07-02T08:31:51;21.90;99.90
11067;DHT22;29763;50.904;5.530;2023-07-02T08:34:19;21.60;99.90
11067;DHT22;29763;50.904;5.530;2023-07-02T08:36:51;21.40;99.90
11067;DHT22;29763;50.904;5.530;2023-07-02T08:39:17;21.70;99.90
11067;DHT22;29763;50.904;5.530;2023-07-02T08:41:47;21.70;99.90
11067;DHT22;29763;50.904;5.530;2023-07-02T08:44:14;21.50;99.90
11067;DHT22;29763;50.904;5.530;2023-07-02T08:46:42;21.20;99.90
11067;DHT22;29763;50.904;5.530;2023-07-02T08:49:08;21.00;99.90
11067;DHT22;29763;50.904;5.530;2023-07-02T08:51:35;20.80;99.90
11067;DHT22;29763;50.904;5.530;2023-07-02T08:54:02;20.70;99.90
11067;DHT22;29763;50.904;5.530;2023-07-02T08:56:31;20.50;99.90
11067;DHT22;29763;50.904;5.530;2023-07-02T08:58:59;20.30;99.90
11067;DHT22;29763;50.904;5.530;2023-07-02T09:01:25;20.10;99.90
11067;DHT22;29763;50.904;5.530;2023-07-02T09:04:00;20.10;99.90
11067;DHT22;29763;50.904;5.530;2023-07-02T09:06:26;20.50;99.90
11067;DHT22;29763;50.904;5.530;2023-07-02T09:08:52;21.60;99.90
11067;DHT22;29763;50.904;5.530;2023-07-02T09:11:19;22.30;99.90
11067;DHT22;29763;50.904;5.530;2023-07-02T09:16:32;23.20;99.90
11067;DHT22;29763;50.904;5.530;2023-07-02T09:19:07;23.70;99.90
11067;DHT22;29763;50.904;5.530;2023-07-02T09:21:57;23.80;99.90
11067;DHT22;29763;50.904;5.530;2023-07-02T09:24:31;23.70;99.90
11067;DHT22;29763;50.904;5.530;2023-07-02T09:27:01;24.20;99.90
11067;DHT22;29763;50.904;5.530;2023-07-02T09:29:34;24.80;99.90
11067;DHT22;29763;50.904;5.530;2023-07-02T09:32:03;24.60;99.90
11067;DHT22;29763;50.904;5.530;2023-07-02T09:34:37;23.90;99.90
11067;DHT22;29763;50.904;5.530;2023-07-02T09:37:04;23.40;99.90
11067;DHT22;29763;50.904;5.530;2023-07-02T09:39:32;22.90;99.90
11067;DHT22;29763;50.904;5.530;2023-07-02T09:42:05;22.30;99.90
11067;DHT22;29763;50.904;5.530;2023-07-02T09:44:35;22.00;99.90
11067;DHT22;29763;50.904;5.530;2023-07-02T09:47:06;22.10;99.90
11067;DHT22;29763;50.904;5.530;2023-07-02T09:49:40;23.20;99.90
11067;DHT22;29763;50.904;5.530;2023-07-02T09:52:08;24.40;99.90
11067;DHT22;29763;50.904;5.530;2023-07-02T09:54:36;24.90;99.90
11067;DHT22;29763;50.904;5.530;2023-07-02T09:57:03;25.00;99.90
11067;DHT22;29763;50.904;5.530;2023-07-02T09:59:31;24.60;99.90
11067;DHT22;29763;50.904;5.530;2023-07-02T10:01:59;23.90;99.90
11067;DHT22;29763;50.904;5.530;2023-07-02T10:04:40;23.30;99.90
11067;DHT22;29763;50.904;5.530;2023-07-02T10:07:06;23.30;99.90
11067;DHT22;29763;50.904;5.530;2023-07-02T10:12:28;25.40;99.90
11067;DHT22;29763;50.904;5.530;2023-07-02T10:14:57;26.30;97.40
11067;DHT22;29763;50.904;5.530;2023-07-02T10:17:53;26.50;98.40
11067;DHT22;29763;50.904;5.530;2023-07-02T10:20:49;26.30;96.60
11067;DHT22;29763;50.904;5.530;2023-07-02T10:23:20;26.10;97.20
11067;DHT22;29763;50.904;5.530;2023-07-02T10:25:56;25.40;98.20
11067;DHT22;29763;50.904;5.530;2023-07-02T10:28:26;24.80;99.10
11067;DHT22;29763;50.904;5.530;2023-07-02T10:30:54;24.60;99.90
11067;DHT22;29763;50.904;5.530;2023-07-02T10:33:23;24.00;99.90
11067;DHT22;29763;50.904;5.530;2023-07-02T10:35:57;23.50;99.90
11067;DHT22;29763;50.904;5.530;2023-07-02T10:38:24;23.00;99.90
11067;DHT22;29763;50.904;5.530;2023-07-02T10:41:09;22.70;99.90
11067;DHT22;29763;50.904;5.530;2023-07-02T10:43:37;22.50;99.90
11067;DHT22;29763;50.904;5.530;2023-07-02T10:46:05;22.30;99.90
11067;DHT22;29763;50.904;5.530;2023-07-02T10:48:31;22.10;99.90
11067;DHT22;29763;50.904;5.530;2023-07-02T10:50:57;22.00;99.90
11067;DHT22;29763;50.904;5.530;2023-07-02T10:53:23;22.10;99.90
11067;DHT22;29763;50.904;5.530;2023-07-02T10:55:56;22.50;99.90
11067;DHT22;29763;50.904;5.530;2023-07-02T10:58:26;23.00;99.90
11067;DHT22;29763;50.904;5.530;2023-07-02T11:00:52;23.50;99.90
11067;DHT22;29763;50.904;5.530;2023-07-02T11:03:36;23.80;99.90
11067;DHT22;29763;50.904;5.530;2023-07-02T11:06:04;24.20;99.90
11067;DHT22;29763;50.904;5.530;2023-07-02T11:08:38;24.10;99.90
11067;DHT22;29763;50.904;5.530;2023-07-02T11:11:31;24.40;99.90
11067;DHT22;29763;50.904;5.530;2023-07-02T11:13:57;24.60;99.90
11067;DHT22;29763;50.904;5.530;2023-07-02T11:16:28;24.40;99.90
11067;DHT22;29763;50.904;5.530;2023-07-02T11:19:10;24.40;99.90
11067;DHT22;29763;50.904;5.530;2023-07-02T11:21:50;24.60;99.90
11067;DHT22;29763;50.904;5.530;2023-07-02T11:24:27;24.90;99.90
11067;DHT22;29763;50.904;5.530;2023-07-02T11:27:06;25.10;99.90
11067;DHT22;29763;50.904;5.530;2023-07-02T11:29:39;24.80;99.90
11067;DHT22;29763;50.904;5.530;2023-07-02T11:32:12;24.50;99.90
11067;DHT22;29763;50.904;5.530;2023-07-02T11:34:56;24.00;99.90
11067;DHT22;29763;50.904;5.530;2023-07-02T11:37:23;23.80;99.90
11067;DHT22;29763;50.904;5.530;2023-07-02T11:39:50;24.10;99.90
11067;DHT22;29763;50.904;5.530;2023-07-02T11:42:37;25.00;99.90
11067;DHT22;29763;50.904;5.530;2023-07-02T11:48:13;25.00;99.90
11067;DHT22;29763;50.904;5.530;2023-07-02T11:50:45;24.50;99.90
11067;DHT22;29763;50.904;5.530;2023-07-02T11:53:11;24.00;99.90
11067;DHT22;29763;50.904;5.530;2023-07-02T11:55:54;23.60;99.90
11067;DHT22;29763;50.904;5.530;2023-07-02T11:58:20;23.20;99.90
11067;DHT22;29763;50.904;5.530;2023-07-02T12:00:53;22.90;99.90
11067;DHT22;29763;50.904;5.530;2023-07-02T12:03:26;22.30;99.90
11067;DHT22;29763;50.904;5.530;2023-07-02T12:05:56;22.20;99.90
11067;DHT22;29763;50.904;5.530;2023-07-02T12:08:22;22.30;99.90
11067;DHT22;29763;50.904;5.530;2023-07-02T12:10:48;22.80;99.90
11067;DHT22;29763;50.904;5.530;2023-07-02T12:13:16;23.50;99.90
11067;DHT22;29763;50.904;5.530;2023-07-02T12:15:44;24.60;99.90
11067;DHT22;29763;50.904;5.530;2023-07-02T12:18:10;25.30;99.90
11067;DHT22;29763;50.904;5.530;2023-07-02T12:20:38;25.40;99.90
11067;DHT22;29763;50.904;5.530;2023-07-02T12:23:04;25.40;99.90
11067;DHT22;29763;50.904;5.530;2023-07-02T12:25:31;26.20;99.90
11067;DHT22;29763;50.904;5.530;2023-07-02T12:27:58;26.80;99.90
11067;DHT22;29763;50.904;5.530;2023-07-02T12:30:23;27.00;99.90
11067;DHT22;29763;50.904;5.530;2023-07-02T12:32:49;26.50;99.90
11067;DHT22;29763;50.904;5.530;2023-07-02T12:35:16;25.80;99.90
11067;DHT22;29763;50.904;5.530;2023-07-02T12:37:46;25.30;99.90
11067;DHT22;29763;50.904;5.530;2023-07-02T12:40:14;25.20;99.90
11067;DHT22;29763;50.904;5.530;2023-07-02T12:42:42;25.10;99.90
11067;DHT22;29763;50.904;5.530;2023-07-02T12:45:10;25.40;99.90
11067;DHT22;29763;50.904;5.530;2023-07-02T12:47:37;25.90;99.90
11067;DHT22;29763;50.904;5.530;2023-07-02T12:50:05;26.10;99.90
11067;DHT22;29763;50.904;5.530;2023-07-02T12:52:35;26.10;99.90
11067;DHT22;29763;50.904;5.530;2023-07-02T12:55:01;26.50;99.90
11067;DHT22;29763;50.904;5.530;2023-07-02T12:57:27;26.80;99.90
11067;DHT22;29763;50.904;5.530;2023-07-02T12:59:54;27.20;99.60
11067;DHT22;29763;50.904;5.530;2023-07-02T13:02:22;27.30;99.80
11067;DHT22;29763;50.904;5.530;2023-07-02T13:04:50;27.90;99.90
11067;DHT22;29763;50.904;5.530;2023-07-02T13:07:16;28.80;98.80
11067;DHT22;29763;50.904;5.530;2023-07-02T13:09:43;28.80;98.20
11067;DHT22;29763;50.904;5.530;2023-07-02T13:12:10;28.10;96.40
11067;DHT22;29763;50.904;5.530;2023-07-02T13:14:39;27.70;96.40
11067;DHT22;29763;50.904;5.530;2023-07-02T13:17:05;27.00;96.00
11067;DHT22;29763;50.904;5.530;2023-07-02T13:19:31;26.30;97.10
11067;DHT22;29763;50.904;5.530;2023-07-02T13:21:58;25.90;98.10
11067;DHT22;29763;50.904;5.530;2023-07-02T13:24:28;25.40;99.00
11067;DHT22;29763;50.904;5.530;2023-07-02T13:27:02;25.50;99.70
11067;DHT22;29763;50.904;5.530;2023-07-02T13:29:29;25.70;99.50
11067;DHT22;29763;50.904;5.530;2023-07-02T13:32:04;26.20;99.10
11067;DHT22;29763;50.904;5.530;2023-07-02T13:34:31;26.40;98.20
11067;DHT22;29763;50.904;5.530;2023-07-02T13:36:59;26.90;98.10
11067;DHT22;29763;50.904;5.530;2023-07-02T13:39:29;27.30;98.60
11067;DHT22;29763;50.904;5.530;2023-07-02T13:41:56;27.50;97.30
11067;DHT22;29763;50.904;5.530;2023-07-02T13:44:22;27.70;97.00
11067;DHT22;29763;50.904;5.530;2023-07-02T13:46:50;27.70;97.80
11067;DHT22;29763;50.904;5.530;2023-07-02T13:49:16;27.40;95.90
11067;DHT22;29763;50.904;5.530;2023-07-02T13:51:42;26.80;96.50
11067;DHT22;29763;50.904;5.530;2023-07-02T13:54:12;26.20;97.60
11067;DHT22;29763;50.904;5.530;2023-07-02T13:56:41;25.90;98.40
11067;DHT22;29763;50.904;5.530;2023-07-02T13:59:11;25.90;98.40
11067;DHT22;29763;50.904;5.530;2023-07-02T14:01:37;25.80;98.40
11067;DHT22;29763;50.904;5.530;2023-07-02T14:04:03;25.80;98.30
11067;DHT22;29763;50.904;5.530;2023-07-02T14:06:31;26.00;98.70
11067;DHT22;29763;50.904;5.530;2023-07-02T14:08:57;26.10;97.40
11067;DHT22;29763;50.904;5.530;2023-07-02T14:11:23;26.00;98.60
11067;DHT22;29763;50.904;5.530;2023-07-02T14:13:49;25.90;97.80
11067;DHT22;29763;50.904;5.530;2023-07-02T14:16:17;25.70;98.70
11067;DHT22;29763;50.904;5.530;2023-07-02T14:18:46;26.00;98.40
11067;DHT22;29763;50.904;5.530;2023-07-02T14:21:12;26.10;98.00
11067;DHT22;29763;50.904;5.530;2023-07-02T14:23:38;25.90;98.60
11067;DHT22;29763;50.904;5.530;2023-07-02T14:26:05;26.40;98.70
11067;DHT22;29763;50.904;5.530;2023-07-02T14:28:32;27.00;97.90
11067;DHT22;29763;50.904;5.530;2023-07-02T14:31:03;27.40;97.50
11067;DHT22;29763;50.904;5.530;2023-07-02T14:33:32;27.50;96.40
11067;DHT22;29763;50.904;5.530;2023-07-02T14:35:59;26.70;95.80
11067;DHT22;29763;50.904;5.530;2023-07-02T14:38:36;26.20;96.80
11067;DHT22;29763;50.904;5.530;2023-07-02T14:41:03;26.30;98.10
11067;DHT22;29763;50.904;5.530;2023-07-02T14:46:35;26.10;97.50
11067;DHT22;29763;50.904;5.530;2023-07-02T14:51:50;26.40;97.80
11067;DHT22;29763;50.904;5.530;2023-07-02T14:54:22;26.20;97.60
11067;DHT22;29763;50.904;5.530;2023-07-02T14:56:52;26.50;97.90
11067;DHT22;29763;50.904;5.530;2023-07-02T14:59:22;27.00;97.70
11067;DHT22;29763;50.904;5.530;2023-07-02T15:01:54;27.00;97.00
11067;DHT22;29763;50.904;5.530;2023-07-02T15:04:19;26.70;96.80
11067;DHT22;29763;50.904;5.530;2023-07-02T15:06:51;26.20;97.80
11067;DHT22;29763;50.904;5.530;2023-07-02T15:09:28;26.30;98.60
11067;DHT22;29763;50.904;5.530;2023-07-02T15:11:55;26.60;98.60
11067;DHT22;29763;50.904;5.530;2023-07-02T15:14:23;27.20;97.70
11067;DHT22;29763;50.904;5.530;2023-07-02T15:16:50;27.40;97.10
11067;DHT22;29763;50.904;5.530;2023-07-02T15:19:18;27.60;96.90
11067;DHT22;29763;50.904;5.530;2023-07-02T15:21:45;27.70;96.70
11067;DHT22;29763;50.904;5.530;2023-07-02T15:24:12;27.40;96.60
11067;DHT22;29763;50.904;5.530;2023-07-02T15:26:45;27.20;97.00
11067;DHT22;29763;50.904;5.530;2023-07-02T15:29:12;27.30;97.50
11067;DHT22;29763;50.904;5.530;2023-07-02T15:31:38;27.20;97.30
11067;DHT22;29763;50.904;5.530;2023-07-02T15:34:09;26.70;97.10
11067;DHT22;29763;50.904;5.530;2023-07-02T15:36:36;26.20;97.50
11067;DHT22;29763;50.904;5.530;2023-07-02T15:39:03;26.30;98.50
11067;DHT22;29763;50.904;5.530;2023-07-02T15:41:29;26.20;98.50
11067;DHT22;29763;50.904;5.530;2023-07-02T15:43:59;25.60;98.40
11067;DHT22;29763;50.904;5.530;2023-07-02T15:46:29;25.30;99.00
11067;DHT22;29763;50.904;5.530;2023-07-02T15:49:04;25.40;99.30
11067;DHT22;29763;50.904;5.530;2023-07-02T15:51:32;26.00;98.40
11067;DHT22;29763;50.904;5.530;2023-07-02T15:54:04;26.20;98.70
11067;DHT22;29763;50.904;5.530;2023-07-02T15:56:39;25.90;98.90
11067;DHT22;29763;50.904;5.530;2023-07-02T15:59:08;25.40;99.10
11067;DHT22;29763;50.904;5.530;2023-07-02T16:01:35;25.30;99.00
11067;DHT22;29763;50.904;5.530;2023-07-02T16:04:03;25.40;99.50